Details From LEAM - Almeria
To LELC - Murcia San Javier
Flight Number -
Tags decoded
Created
Modified
Stats Distance 98 nm / 181 km
Max Altitude 0 ft / 0 m
Waypoints 5
Social Downloads 0
Likes 0
Share VATSIM

Download

Looking for another format? Having issues loading an existing format? Contact us
Advertisement - Login to hide

Notes

Requested: LEAM AMR DINCO DIMER LELC

Route

LEAM AMR DINCO DIMER LELC

ID Type Via Altitude (ft/m) Position (lat/lon) Dist (leg/tot) Name
O LEAM APT - 0 / 0 36.84393 / -2.37010 - / 0 nm Almeria
AMR VOR - 0 / 0 36.83317 / -2.25942 5 / 5 nm ALMERIA VOR-DME
DINCO FIX - 0 / 0 37.25625 / -1.28777 53 / 58 nm
DIMER FIX - 0 / 0 37.30623 / -1.16859 6 / 64 nm
O LELC APT - 0 / 0 37.78026 / -0.81226 33 / 97 nm Murcia San Javier

Altitude Profile

Advertisement - Login to hide

LEAM

Details ICAO LEAM (LEI)
Name Almeria
Region Spain
Timezone Unknown
Stats Elevation 69 ft / 21 m (AMSL)
Location 36.843900° -2.370100°
Runways 1
Magnetic Variation 0.033° W

METAR

LEAM 042100Z AUTO 06014KT CAVOK 16/09 Q1018

Decode

TAF

TAF LEAM 042000Z 0421/0521 07018KT 9999 FEW030 TX21/0514Z TN11/0506Z BECMG 0421/0423 35008KT BECMG 0508/0510 09015KT BECMG 0519/0521 35006KT

Decode

Departure Runways

ID Width Length Bearing (true/mag) Surface Threshold Overrun Markings Lighting
07 148 ft / 45 m 10,508 ft / 3,203 m 72.94° / 72.97° ASPHALT 515 ft / 157 m 0 ft / 0 m APP EDGE THRESHOLD MALS REIL-OMNI
25 148 ft / 45 m 10,508 ft / 3,203 m 252.96° / 252.99° ASPHALT 0 ft / 0 m 0 ft / 0 m PREC-APP EDGE THRESHOLD CALVERT REIL-OMNI

LELC

Details ICAO LELC (MJV)
Name Murcia San Javier
Region Spain
Timezone Europe/Madrid (UTC+2.0)
Stats Elevation 11 ft / 3 m (AMSL)
Location 37.780300° -0.812258°
Runways 3
Magnetic Variation 0.373° E

METAR

LELC 042100Z 07008KT 040V110 9999 FEW022 15/11 Q1020 NOSIG

Decode

TAF

TAF LELC 041700Z 0418/0518 06008KT 9999 SCT020 TX19/0514Z TN10/0506Z

Decode

Destination Runways

ID Width Length Bearing (true/mag) Surface Threshold Overrun Markings Lighting
05L 164 ft / 50 m 6,553 ft / 1,997 m 45.62° / 45.24° ASPHALT 656 ft / 200 m 0 ft / 0 m APP
05R 148 ft / 45 m 7,553 ft / 2,302 m 45.63° / 45.26° ASPHALT 0 ft / 0 m 656 ft / 200 m PREC-APP EDGE THRESHOLD REIL-OMNI
14 197 ft / 60 m 2,657 ft / 810 m 136.05° / 135.68° GRASS 0 ft / 0 m 0 ft / 0 m VISUAL
23L 148 ft / 45 m 7,553 ft / 2,302 m 225.65° / 225.27° ASPHALT 0 ft / 0 m 656 ft / 200 m APP EDGE THRESHOLD REIL-OMNI
23R 164 ft / 50 m 6,553 ft / 1,997 m 225.63° / 225.25° ASPHALT 656 ft / 200 m 0 ft / 0 m APP
32 197 ft / 60 m 2,657 ft / 810 m 316.05° / 315.68° GRASS 0 ft / 0 m 0 ft / 0 m VISUAL

Approach Navaids

Runway Type Ident Frequency Range Bearing (true/mag) Slope Elevation
05R LOC-ILS ISJ 110.50 MHz 18 nm / 33 km 45.68° / 45.30 ° - 11 ft / 3 m (AMSL)
05R GS ISJ 110.50 MHz 10 nm / 19 km 46.28° / 45.91 ° 2.80° 11 ft / 3 m (AMSL)
05R OM OM - - 45.64° / 45.27 ° - 11 ft / 3 m (AMSL)
05R MM MM - - 45.64° / 45.27 ° - 11 ft / 3 m (AMSL)

Popular Alternatives